Salinas Municipal Airport
KSNS : now visible

Airfield :











YOU CAN JOIN US ON...

 
LOGIN :

Register | Disclaimer

   EN    FR    IT 

 









Legend :    VFR   Marginal VFR   IFR   Intensive IFR   Very Intensive IFR
Visi :
Ceiling :
>= 8 km
>= 3000ft
5 to 8 km
1000 to 3000 ft
1500m to 5 km
500 to 1000 ft
800 to 1500m
200 to 500 ft
< 800m
< 200 ft
Symbols :   Thunderstorms  Fog  Heavy snow  Heavy precipitations  Wind > 20 kt






- Airport Elevation : 85 ft


KSNS - Salinas Municipal

CURRENT METAR :
  • 271337Z 00000KT 10SM OVC009 14/12 A3005 RMK AO2 T01440117

EXPIRED METARs :
  • 271253Z 00000KT 10SM OVC011 15/12 A3003 RMK AO2 SLP179 T01500117
  • 271153Z AUTO 00000KT 10SM OVC011 15/12 A3003 RMK AO2 SLP177 T01500117 10161 20144 56009

TAF KSNS
Valid from the 27 at 12:00 until the 28 at 12:00 UTC


271120Z 2712/2812 VRB05KT P6SM BKN012
FM271800 27010KT P6SM SCT015
FM272300 28010G16KT 6SM -RA BR OVC025
FM280500 27009G14KT P6SM OVC015
FM281100 26008KT P6SM FEW015
KZOA FIR / North America



MET'MAP, your aeronautical weather chart ! - Copyright ORBIFLY December 2007 - Disclaimer

ORBIFLY MET'MAP TEAM :

Programming & Development : Alexandra Zaïnal
Concept & original design : Baudouin d'Aumeries
Assistance for programming : Marc-Olivier Méhu
Technical & hardware support : Manuel Goepfert

Contact : metmap@orbifly.com




SOURCES & CREDITS :

   NOAA       Earth
Advisory